createdAt,value
2023-01-19T00:02:15.753Z,99915.69
2023-01-19T00:04:42.058Z,99929.69
2023-01-19T00:07:08.410Z,99920.03
2023-01-19T00:09:34.740Z,99933.84
2023-01-19T00:12:01.069Z,99938.06
2023-01-19T00:14:27.438Z,99931.91
2023-01-19T00:16:53.773Z,99935.13
2023-01-19T00:19:20.202Z,99937.72
2023-01-19T00:21:46.527Z,99933.69
2023-01-19T00:24:12.957Z,99935.47
2023-01-19T00:26:39.495Z,99936.59
2023-01-19T00:29:12.542Z,99919.03
2023-01-19T00:31:39.158Z,99923.41
2023-01-19T00:34:06.586Z,99934.50
2023-01-19T00:36:33.427Z,99934.19
2023-01-19T00:39:00.026Z,99919.53
2023-01-19T00:41:26.531Z,99921.13
2023-01-19T00:43:52.851Z,99927.75
2023-01-19T00:46:19.203Z,99919.03
2023-01-19T00:48:45.522Z,99929.03
2023-01-19T00:51:11.847Z,99934.03
2023-01-19T00:53:38.883Z,99915.81
2023-01-19T00:56:05.637Z,99928.69
2023-01-19T00:58:31.967Z,99918.72
2023-01-19T01:00:58.374Z,99914.34
2023-01-19T01:03:24.751Z,99924.50
2023-01-19T01:05:51.149Z,99905.84
2023-01-19T01:08:17.508Z,99914.84
2023-01-19T01:10:43.869Z,99915.00
2023-01-19T01:13:19.976Z,99922.91
2023-01-19T01:15:54.566Z,99924.03
2023-01-19T01:18:21.641Z,99930.63
2023-01-19T01:20:48.024Z,99915.50
2023-01-19T01:23:14.703Z,99921.75
2023-01-19T01:25:41.409Z,99932.72
2023-01-19T01:28:08.150Z,99928.84
2023-01-19T01:30:36.156Z,99933.38
2023-01-19T01:33:02.935Z,99937.56
2023-01-19T01:35:29.486Z,99925.16
2023-01-19T01:37:58.229Z,99934.03
2023-01-19T01:40:24.619Z,99915.81
2023-01-19T01:42:50.970Z,99931.09
2023-01-19T01:45:36.693Z,99934.81
2023-01-19T01:48:09.829Z,99923.22
2023-01-19T01:50:41.490Z,99935.59
2023-01-19T01:53:14.782Z,99943.81
2023-01-19T01:55:46.335Z,99932.53
2023-01-19T01:58:14.829Z,99947.00
2023-01-19T02:00:41.930Z,99946.06
2023-01-19T02:03:08.420Z,99947.78
2023-01-19T02:05:34.952Z,99940.38
2023-01-19T02:08:15.331Z,99944.41
2023-01-19T02:10:42.929Z,99931.34
2023-01-19T02:13:09.379Z,99935.88
2023-01-19T02:15:35.616Z,99945.69
2023-01-19T02:18:02.077Z,99932.13
2023-01-19T02:20:30.255Z,99935.53
2023-01-19T02:23:01.863Z,99916.19
2023-01-19T02:25:28.865Z,99920.41
2023-01-19T02:27:55.545Z,99924.13
2023-01-19T02:30:22.003Z,99932.81
2023-01-19T02:32:48.799Z,99941.53
2023-01-19T02:35:15.820Z,99934.63
2023-01-19T02:37:44.210Z,99935.44
2023-01-19T02:40:13.915Z,99933.50
2023-01-19T02:42:49.884Z,99943.69
2023-01-19T02:45:19.886Z,99937.06
2023-01-19T02:47:48.704Z,99922.09
2023-01-19T02:50:36.090Z,99944.16
2023-01-19T02:53:34.805Z,99942.72
2023-01-19T02:56:26.577Z,99933.84
2023-01-19T02:59:31.544Z,99942.06
2023-01-19T03:02:24.192Z,99942.41
2023-01-19T03:05:19.504Z,99948.03
2023-01-19T03:08:09.378Z,99951.59
2023-01-19T03:10:38.435Z,99949.81
2023-01-19T03:13:13.179Z,99951.59
2023-01-19T03:15:48.976Z,99944.97
2023-01-19T03:18:20.167Z,99945.47
2023-01-19T03:20:50.107Z,99959.00
2023-01-19T03:23:18.398Z,99957.41
2023-01-19T03:25:48.135Z,99965.28
2023-01-19T03:28:19.392Z,99960.13
2023-01-19T03:30:50.452Z,99957.88
2023-01-19T03:33:25.019Z,99967.19
2023-01-19T03:35:57.191Z,99955.44
2023-01-19T03:38:27.255Z,99961.09
2023-01-19T03:40:58.472Z,99976.06
2023-01-19T03:43:26.452Z,99957.53
2023-01-19T03:45:53.617Z,99964.13
2023-01-19T03:48:21.803Z,99952.19
2023-01-19T03:50:48.135Z,99950.72
2023-01-19T03:53:16.979Z,99947.34
2023-01-19T03:55:46.427Z,99951.22
2023-01-19T03:58:13.244Z,99959.09
2023-01-19T04:00:40.111Z,99963.09
2023-01-19T04:03:13.131Z,99962.16
2023-01-19T04:05:39.733Z,99971.16
2023-01-19T04:08:06.476Z,99966.16
2023-01-19T04:10:32.834Z,99978.09
2023-01-19T04:13:01.020Z,99980.34
2023-01-19T04:15:29.057Z,99980.31
2023-01-19T04:17:58.448Z,99983.06
2023-01-19T04:20:25.338Z,99982.38
2023-01-19T04:22:51.641Z,99981.75
2023-01-19T04:25:18.065Z,99982.06
2023-01-19T04:27:44.344Z,99982.06
2023-01-19T04:30:11.465Z,99974.16
2023-01-19T04:32:37.895Z,99974.97
2023-01-19T04:35:04.862Z,99990.44
2023-01-19T04:37:31.295Z,100004.50
2023-01-19T04:39:57.509Z,100006.25
2023-01-19T04:42:23.807Z,100008.84
2023-01-19T04:44:50.162Z,100021.25
2023-01-19T04:47:16.423Z,100025.25
2023-01-19T04:49:42.799Z,100029.47
2023-01-19T04:52:09.071Z,100012.34
2023-01-19T04:54:35.501Z,100015.72
2023-01-19T04:57:01.810Z,100017.66
2023-01-19T04:59:28.195Z,100008.47
2023-01-19T05:01:54.672Z,100006.47
2023-01-19T05:04:21.107Z,100011.84
2023-01-19T05:06:47.417Z,100012.44
2023-01-19T05:09:13.924Z,99999.97
2023-01-19T05:11:40.288Z,100011.75
2023-01-19T05:14:06.900Z,100011.75
2023-01-19T05:16:33.338Z,100019.50
2023-01-19T05:18:59.581Z,100027.53
2023-01-19T05:21:25.947Z,100029.97
2023-01-19T05:23:52.234Z,100045.13
2023-01-19T05:26:18.639Z,100038.19
2023-01-19T05:28:44.931Z,100047.38
2023-01-19T05:31:11.333Z,100056.75
2023-01-19T05:33:37.719Z,100045.41
2023-01-19T05:36:04.190Z,100059.63
2023-01-19T05:38:35.449Z,100048.00
2023-01-19T05:41:02.435Z,100062.66
2023-01-19T05:43:28.808Z,100061.72
2023-01-19T05:45:55.166Z,100054.44
2023-01-19T05:48:21.401Z,100065.72
2023-01-19T05:50:47.766Z,100067.31
2023-01-19T05:53:14.059Z,100066.38
2023-01-19T05:55:40.386Z,100065.88
2023-01-19T05:58:06.734Z,100069.59
2023-01-19T06:00:33.094Z,100078.94
2023-01-19T06:02:59.774Z,100083.31
2023-01-19T06:05:26.388Z,100081.22
2023-01-19T06:07:52.691Z,100093.81
2023-01-19T06:10:19.222Z,100090.59
2023-01-19T06:12:45.542Z,100094.16
2023-01-19T06:15:11.852Z,100103.84
2023-01-19T06:17:38.215Z,100091.28
2023-01-19T06:20:04.735Z,100108.88
2023-01-19T06:22:31.058Z,100115.19
2023-01-19T06:24:57.390Z,100110.19
2023-01-19T06:27:23.735Z,100115.84
2023-01-19T06:29:50.035Z,100112.16
2023-01-19T06:32:16.479Z,100109.91
2023-01-19T06:34:42.890Z,100119.91
2023-01-19T06:37:10.684Z,100105.22
2023-01-19T06:39:37.608Z,100126.22
2023-01-19T06:42:03.967Z,100122.84
2023-01-19T06:44:30.273Z,100121.56
2023-01-19T06:47:15.318Z,100142.03
2023-01-19T06:49:42.529Z,100149.44
2023-01-19T06:52:09.676Z,100152.66
2023-01-19T06:54:36.016Z,100151.88
2023-01-19T06:57:03.566Z,100161.41
2023-01-19T06:59:29.992Z,100153.34
2023-01-19T07:01:56.541Z,100168.50
2023-01-19T07:04:23.131Z,100181.44
2023-01-19T07:06:50.137Z,100176.75
2023-01-19T07:09:16.996Z,100186.13
2023-01-19T07:11:43.477Z,100168.22
2023-01-19T07:14:09.905Z,100181.75
2023-01-19T07:16:36.270Z,100199.84
2023-01-19T07:19:02.644Z,100189.50
2023-01-19T07:21:29.388Z,100212.09
2023-01-19T07:23:55.919Z,100205.81
2023-01-19T07:26:22.320Z,100209.38
2023-01-19T07:28:48.914Z,100225.38
2023-01-19T07:31:16.021Z,100227.13
2023-01-19T07:33:42.505Z,100232.44
2023-01-19T07:36:09.012Z,100231.81
2023-01-19T07:38:35.376Z,100226.34
2023-01-19T07:41:02.234Z,100238.25
2023-01-19T07:43:28.777Z,100242.78
2023-01-19T07:45:59.456Z,100255.25
2023-01-19T07:48:26.354Z,100255.41
2023-01-19T07:50:52.893Z,100252.66
2023-01-19T07:53:19.785Z,100266.22
2023-01-19T07:55:46.211Z,100258.94
2023-01-19T07:58:12.698Z,100269.75
2023-01-19T08:00:39.292Z,100272.00
2023-01-19T08:03:05.874Z,100271.19
2023-01-19T08:05:33.366Z,100282.66
2023-01-19T08:07:59.871Z,100294.13
2023-01-19T08:10:27.147Z,100300.91
2023-01-19T08:12:57.735Z,100303.63
2023-01-19T08:15:25.109Z,100306.69
2023-01-19T08:18:02.741Z,100309.63
2023-01-19T08:20:29.617Z,100316.25
2023-01-19T08:22:56.552Z,100321.25
2023-01-19T08:25:22.881Z,100320.47
2023-01-19T08:27:49.248Z,100328.06
2023-01-19T08:30:15.724Z,100331.59
2023-01-19T08:32:42.261Z,100324.97
2023-01-19T08:35:08.890Z,100331.44
2023-01-19T08:37:35.277Z,100345.66
2023-01-19T08:40:01.876Z,100348.06
2023-01-19T08:42:28.218Z,100352.41
2023-01-19T08:44:58.641Z,100358.88
2023-01-19T08:47:25.243Z,100363.41
2023-01-19T08:49:51.730Z,100348.38
2023-01-19T08:52:18.096Z,100354.53
2023-01-19T08:54:44.418Z,100365.38
2023-01-19T08:57:10.756Z,100365.50
2023-01-19T08:59:37.189Z,100374.56
2023-01-19T09:02:03.550Z,100382.66
2023-01-19T09:04:30.104Z,100386.66
2023-01-19T09:06:56.519Z,100378.44
2023-01-19T09:09:22.779Z,100387.16
2023-01-19T09:11:49.128Z,100377.94
2023-01-19T09:14:15.410Z,100390.69
2023-01-19T09:16:41.844Z,100393.59
2023-01-19T09:19:08.162Z,100394.75
2023-01-19T09:21:34.796Z,100402.00
2023-01-19T09:24:01.135Z,100401.34
2023-01-19T09:26:27.470Z,100410.06
2023-01-19T09:28:54.064Z,100409.09
2023-01-19T09:31:20.602Z,100418.94
2023-01-19T09:33:47.222Z,100423.31
2023-01-19T09:36:13.690Z,100433.34
2023-01-19T09:38:40.290Z,100417.81
2023-01-19T09:41:19.815Z,100431.22
2023-01-19T09:43:54.594Z,100430.19
2023-01-19T09:46:40.424Z,100438.25
2023-01-19T09:49:25.531Z,100434.84
2023-01-19T09:51:52.418Z,100434.41
2023-01-19T09:54:29.950Z,100425.63
2023-01-19T09:56:56.417Z,100432.84
2023-01-19T09:59:30.209Z,100437.66
2023-01-19T10:02:18.295Z,100440.19
2023-01-19T10:04:50.392Z,100439.03
2023-01-19T10:07:24.323Z,100442.25
2023-01-19T10:10:04.751Z,100443.44
2023-01-19T10:12:57.395Z,100441.25
2023-01-19T10:15:37.880Z,100447.81
2023-01-19T10:18:13.652Z,100434.94
2023-01-19T10:21:08.197Z,100447.59
2023-01-19T10:23:46.056Z,100440.38
2023-01-19T10:26:17.489Z,100438.31
2023-01-19T10:28:46.919Z,100450.06
2023-01-19T10:31:14.248Z,100443.81
2023-01-19T10:33:40.963Z,100433.31
2023-01-19T10:36:17.623Z,100453.94
2023-01-19T10:38:44.561Z,100436.00
2023-01-19T10:41:28.387Z,100445.78
2023-01-19T10:44:00.221Z,100440.28
2023-01-19T10:46:33.439Z,100453.88
2023-01-19T10:49:00.089Z,100445.16
2023-01-19T10:51:26.739Z,100452.66
2023-01-19T10:54:13.262Z,100449.97
2023-01-19T10:56:39.927Z,100452.47
2023-01-19T10:59:07.186Z,100446.88
2023-01-19T11:01:34.104Z,100440.94
2023-01-19T11:04:00.546Z,100452.66
2023-01-19T11:06:30.279Z,100449.94
2023-01-19T11:09:32.181Z,100457.03
2023-01-19T11:11:58.564Z,100465.72
2023-01-19T11:14:26.292Z,100463.72
2023-01-19T11:16:56.162Z,100462.78
2023-01-19T11:19:28.850Z,100457.00
2023-01-19T11:22:16.986Z,100471.69
2023-01-19T11:24:43.976Z,100460.75
2023-01-19T11:27:10.476Z,100462.38
2023-01-19T11:29:37.132Z,100467.22
2023-01-19T11:32:18.333Z,100464.81
2023-01-19T11:34:44.708Z,100470.00
2023-01-19T11:37:19.948Z,100462.81
2023-01-19T11:39:52.520Z,100460.63
2023-01-19T11:42:20.353Z,100472.09
2023-01-19T11:45:03.218Z,100471.34
2023-01-19T11:47:41.448Z,100474.13
2023-01-19T11:50:10.754Z,100464.31
2023-01-19T11:52:51.311Z,100464.50
2023-01-19T11:55:36.181Z,100458.13
2023-01-19T11:58:04.387Z,100462.94
2023-01-19T12:00:38.352Z,100451.28
2023-01-19T12:03:15.389Z,100455.69
2023-01-19T12:05:48.403Z,100468.91
2023-01-19T12:08:39.376Z,100456.84
2023-01-19T12:11:08.925Z,100470.06
2023-01-19T12:13:36.201Z,100465.22
2023-01-19T12:16:20.639Z,100468.81
2023-01-19T12:18:54.367Z,100457.38
2023-01-19T12:21:21.710Z,100470.81
2023-01-19T12:24:15.482Z,100459.38
2023-01-19T12:26:55.806Z,100457.16
2023-01-19T12:29:25.877Z,100467.22
2023-01-19T12:32:14.333Z,100470.44
2023-01-19T12:34:48.595Z,100470.66
2023-01-19T12:37:27.264Z,100471.69
2023-01-19T12:39:56.879Z,100470.06
2023-01-19T12:42:23.938Z,100475.25
2023-01-19T12:45:05.338Z,100471.25
2023-01-19T12:47:32.262Z,100471.22
2023-01-19T12:50:05.697Z,100460.94
2023-01-19T12:52:54.716Z,100465.97
2023-01-19T12:55:27.055Z,100474.16
2023-01-19T12:57:59.539Z,100478.56
2023-01-19T13:00:25.808Z,100471.50
2023-01-19T13:02:52.067Z,100475.53
2023-01-19T13:05:24.517Z,100480.34
2023-01-19T13:08:03.177Z,100479.72
2023-01-19T13:11:00.706Z,100476.28
2023-01-19T13:13:39.431Z,100481.22
2023-01-19T13:16:18.111Z,100479.19
2023-01-19T13:19:07.715Z,100480.81
2023-01-19T13:21:36.795Z,100484.03
2023-01-19T13:24:13.791Z,100484.44
2023-01-19T13:26:42.824Z,100481.44
2023-01-19T13:29:23.002Z,100484.84
2023-01-19T13:31:49.792Z,100482.78
2023-01-19T13:34:22.444Z,100491.25
2023-01-19T13:36:54.418Z,100495.81
2023-01-19T13:39:30.054Z,100476.91
2023-01-19T13:42:00.859Z,100495.41
2023-01-19T13:44:41.489Z,100497.50
2023-01-19T13:47:15.459Z,100492.78
2023-01-19T13:49:45.242Z,100500.44
2023-01-19T13:52:29.688Z,100492.13
2023-01-19T13:54:59.248Z,100505.94
2023-01-19T13:57:32.267Z,100498.06
2023-01-19T14:00:16.775Z,100510.53
2023-01-19T14:02:54.056Z,100504.06
2023-01-19T14:05:34.765Z,100508.09
2023-01-19T14:08:02.267Z,100521.09
2023-01-19T14:10:28.617Z,100522.47
2023-01-19T14:13:22.226Z,100530.75
2023-01-19T14:15:51.586Z,100540.91
2023-01-19T14:18:18.135Z,100538.00
2023-01-19T14:21:02.537Z,100531.09
2023-01-19T14:23:50.164Z,100531.47
2023-01-19T14:26:49.193Z,100541.00
2023-01-19T14:29:32.773Z,100538.13
2023-01-19T14:32:25.791Z,100545.56
2023-01-19T14:34:59.095Z,100551.22
2023-01-19T14:37:33.680Z,100544.59
2023-01-19T14:40:09.270Z,100539.38
2023-01-19T14:42:38.563Z,100539.84
2023-01-19T14:45:16.194Z,100552.03
2023-01-19T14:47:45.281Z,100549.06
2023-01-19T14:50:17.789Z,100558.41
2023-01-19T14:52:51.525Z,100544.41
2023-01-19T14:55:33.818Z,100551.31
2023-01-19T14:58:00.237Z,100547.88
2023-01-19T15:00:27.153Z,100551.94
2023-01-19T15:02:53.533Z,100549.19
2023-01-19T15:05:20.304Z,100547.25
2023-01-19T15:07:47.193Z,100547.09
2023-01-19T15:10:22.321Z,100549.69
2023-01-19T15:12:50.380Z,100554.78
2023-01-19T15:15:20.796Z,100554.25
2023-01-19T15:17:47.150Z,100565.16
2023-01-19T15:20:15.975Z,100568.66
2023-01-19T15:22:42.503Z,100567.41
2023-01-19T15:25:12.501Z,100572.19
2023-01-19T15:27:38.967Z,100580.03
2023-01-19T15:30:14.371Z,100583.81
2023-01-19T15:32:40.724Z,100575.19
2023-01-19T15:35:12.783Z,100581.22
2023-01-19T15:37:39.212Z,100583.22
2023-01-19T15:40:06.467Z,100587.63
2023-01-19T15:42:32.902Z,100581.84
2023-01-19T15:44:59.269Z,100591.78
2023-01-19T15:47:25.689Z,100581.31
2023-01-19T15:49:52.052Z,100585.56
2023-01-19T15:52:18.536Z,100589.19
2023-01-19T15:54:45.065Z,100608.44
2023-01-19T15:57:11.378Z,100604.91
2023-01-19T15:59:37.704Z,100614.16
2023-01-19T16:02:04.552Z,100621.94
2023-01-19T16:04:31.012Z,100618.69
2023-01-19T16:06:57.283Z,100625.81
2023-01-19T16:09:23.745Z,100623.22
2023-01-19T16:11:50.084Z,100629.03
2023-01-19T16:14:17.564Z,100625.78
2023-01-19T16:16:44.413Z,100631.28
2023-01-19T16:19:14.252Z,100639.50
2023-01-19T16:21:40.611Z,100642.41
2023-01-19T16:24:07.039Z,100643.66
2023-01-19T16:26:35.045Z,100648.13
2023-01-19T16:29:06.870Z,100640.19
2023-01-19T16:31:33.302Z,100645.66
2023-01-19T16:33:59.562Z,100652.25
2023-01-19T16:36:31.303Z,100655.47
2023-01-19T16:39:03.779Z,100660.28
2023-01-19T16:41:30.123Z,100662.50
2023-01-19T16:43:58.109Z,100664.59
2023-01-19T16:46:27.195Z,100661.28
2023-01-19T16:48:58.311Z,100660.94
2023-01-19T16:51:24.931Z,100666.72
2023-01-19T16:53:52.484Z,100660.53
2023-01-19T16:56:19.349Z,100669.53
2023-01-19T16:58:45.956Z,100675.69
2023-01-19T17:01:15.038Z,100669.63
2023-01-19T17:03:42.507Z,100671.06
2023-01-19T17:06:11.419Z,100685.91
2023-01-19T17:08:38.528Z,100684.53
2023-01-19T17:11:10.281Z,100686.63
2023-01-19T17:13:37.007Z,100692.09
2023-01-19T17:16:05.168Z,100694.13
2023-01-19T17:18:33.674Z,100691.06
2023-01-19T17:21:04.461Z,100697.63
2023-01-19T17:23:31.189Z,100695.78
2023-01-19T17:25:58.682Z,100697.91
2023-01-19T17:28:25.868Z,100701.59
2023-01-19T17:30:52.783Z,100688.75
2023-01-19T17:33:20.991Z,100698.72
2023-01-19T17:35:47.413Z,100701.72
2023-01-19T17:38:14.247Z,100703.13
2023-01-19T17:40:40.679Z,100704.81
2023-01-19T17:43:07.063Z,100704.06
2023-01-19T17:45:36.996Z,100710.91
2023-01-19T17:48:04.902Z,100711.22
2023-01-19T17:50:34.067Z,100715.69
2023-01-19T17:53:00.855Z,100722.50
2023-01-19T17:55:27.344Z,100717.69
2023-01-19T17:57:53.643Z,100718.53
2023-01-19T18:00:20.281Z,100723.69
2023-01-19T18:02:49.844Z,100728.00
2023-01-19T18:05:16.666Z,100726.41
2023-01-19T18:07:43.126Z,100726.41
2023-01-19T18:10:09.998Z,100730.72
2023-01-19T18:12:36.546Z,100726.69
2023-01-19T18:15:04.285Z,100729.69
2023-01-19T18:17:31.054Z,100733.50
2023-01-19T18:19:58.006Z,100732.84
2023-01-19T18:22:24.684Z,100735.97
2023-01-19T18:24:51.094Z,100739.34
2023-01-19T18:27:17.424Z,100736.53
2023-01-19T18:29:44.290Z,100729.75
2023-01-19T18:32:10.770Z,100737.78
2023-01-19T18:34:37.383Z,100734.66
2023-01-19T18:37:03.999Z,100732.78
2023-01-19T18:39:30.392Z,100741.19
2023-01-19T18:41:57.208Z,100744.72
2023-01-19T18:44:23.529Z,100730.09
2023-01-19T18:46:49.929Z,100732.00
2023-01-19T18:49:16.253Z,100744.88
2023-01-19T18:51:42.638Z,100731.47
2023-01-19T18:54:10.701Z,100754.50
2023-01-19T18:56:37.058Z,100745.03
2023-01-19T18:59:03.649Z,100751.81
2023-01-19T19:01:33.131Z,100743.97
2023-01-19T19:04:00.330Z,100742.47
2023-01-19T19:06:27.253Z,100755.59
2023-01-19T19:08:57.996Z,100750.88
2023-01-19T19:11:25.324Z,100759.28
2023-01-19T19:14:02.088Z,100765.09
2023-01-19T19:16:29.272Z,100756.03
2023-01-19T19:18:55.696Z,100759.13
2023-01-19T19:21:22.872Z,100755.59
2023-01-19T19:23:51.145Z,100763.34
2023-01-19T19:26:17.666Z,100764.13
2023-01-19T19:28:43.909Z,100776.09
2023-01-19T19:31:13.206Z,100774.31
2023-01-19T19:33:40.213Z,100778.66
2023-01-19T19:36:08.551Z,100781.06
2023-01-19T19:38:36.932Z,100780.41
2023-01-19T19:41:13.571Z,100793.94
2023-01-19T19:43:40.215Z,100794.09
2023-01-19T19:46:09.132Z,100796.53
2023-01-19T19:48:38.981Z,100790.84
2023-01-19T19:51:18.802Z,100789.88
2023-01-19T19:53:46.321Z,100804.38
2023-01-19T19:56:13.452Z,100808.47
2023-01-19T19:58:40.961Z,100805.22
2023-01-19T20:01:12.528Z,100812.81
2023-01-19T20:03:39.384Z,100830.97
2023-01-19T20:06:07.434Z,100837.59
2023-01-19T20:08:34.412Z,100830.13
2023-01-19T20:11:06.436Z,100827.44
2023-01-19T20:13:34.474Z,100842.06
2023-01-19T20:16:05.549Z,100827.31
2023-01-19T20:18:32.817Z,100849.13
2023-01-19T20:21:00.051Z,100837.31
2023-01-19T20:23:26.660Z,100852.63
2023-01-19T20:25:53.022Z,100858.03
2023-01-19T20:28:19.693Z,100852.88
2023-01-19T20:30:46.170Z,100867.53
2023-01-19T20:33:12.661Z,100858.56
2023-01-19T20:35:38.940Z,100862.75
2023-01-19T20:38:05.264Z,100865.34
2023-01-19T20:40:31.724Z,100872.81
2023-01-19T20:42:58.021Z,100870.50
2023-01-19T20:45:24.543Z,100869.97
2023-01-19T20:47:53.108Z,100870.13
2023-01-19T20:50:19.484Z,100879.06
2023-01-19T20:52:45.834Z,100870.91
2023-01-19T20:55:12.561Z,100878.53
2023-01-19T20:57:39.015Z,100884.34
2023-01-19T21:00:05.945Z,100884.50
2023-01-19T21:02:32.335Z,100894.38
2023-01-19T21:04:58.731Z,100896.69
2023-01-19T21:07:25.069Z,100874.31
2023-01-19T21:09:51.467Z,100890.44
2023-01-19T21:12:17.903Z,100885.03
2023-01-19T21:14:44.321Z,100891.66
2023-01-19T21:17:10.662Z,100890.72
2023-01-19T21:19:37.021Z,100891.38
2023-01-19T21:22:03.416Z,100897.22
2023-01-19T21:24:29.693Z,100893.69
2023-01-19T21:26:56.031Z,100890.28
2023-01-19T21:29:22.531Z,100899.50
2023-01-19T21:31:48.863Z,100894.63
2023-01-19T21:34:15.199Z,100899.25
2023-01-19T21:36:41.496Z,100903.44
2023-01-19T21:39:07.944Z,100896.00
2023-01-19T21:41:34.329Z,100909.16
2023-01-19T21:44:00.996Z,100904.97
2023-01-19T21:46:28.347Z,100914.97
2023-01-19T21:48:59.894Z,100914.31
2023-01-19T21:51:27.216Z,100906.88
2023-01-19T21:53:53.639Z,100909.94
2023-01-19T21:56:20.995Z,100915.09
2023-01-19T21:58:47.344Z,100908.09
2023-01-19T22:01:14.084Z,100919.09
2023-01-19T22:03:41.871Z,100922.59
2023-01-19T22:06:11.071Z,100923.81
2023-01-19T22:08:37.868Z,100924.50
2023-01-19T22:11:06.023Z,100930.75
2023-01-19T22:13:33.415Z,100930.22
2023-01-19T22:16:05.409Z,100922.59
2023-01-19T22:18:31.850Z,100922.34
2023-01-19T22:21:06.686Z,100930.63
2023-01-19T22:23:33.045Z,100929.28
2023-01-19T22:26:00.135Z,100939.16
2023-01-19T22:28:26.518Z,100939.44
2023-01-19T22:30:52.951Z,100946.22
2023-01-19T22:33:19.431Z,100949.22
2023-01-19T22:35:45.849Z,100952.47
2023-01-19T22:38:12.134Z,100965.38
2023-01-19T22:40:38.438Z,100957.88
2023-01-19T22:43:04.810Z,100966.84
2023-01-19T22:45:31.277Z,100965.22
2023-01-19T22:47:57.559Z,100973.63
2023-01-19T22:50:23.915Z,100964.13
2023-01-19T22:52:55.235Z,100966.69
2023-01-19T22:55:21.591Z,100974.53
2023-01-19T22:57:47.937Z,100975.63
2023-01-19T23:00:14.805Z,100968.03
2023-01-19T23:02:41.150Z,100975.75
2023-01-19T23:05:07.483Z,100969.81
2023-01-19T23:07:33.802Z,100978.22
2023-01-19T23:10:00.224Z,100970.06
2023-01-19T23:12:26.515Z,100978.66
2023-01-19T23:14:52.896Z,100986.09
2023-01-19T23:17:19.265Z,100987.44
2023-01-19T23:19:45.631Z,100989.78
2023-01-19T23:22:11.938Z,100984.63
2023-01-19T23:24:38.422Z,100988.56
2023-01-19T23:27:04.702Z,100989.34
2023-01-19T23:29:31.063Z,100983.41
2023-01-19T23:31:57.412Z,100994.25
2023-01-19T23:34:23.772Z,100983.09
2023-01-19T23:36:50.141Z,100995.63
2023-01-19T23:39:19.864Z,100993.41
2023-01-19T23:41:46.629Z,101007.00
2023-01-19T23:44:13.028Z,101008.09
2023-01-19T23:46:39.385Z,101008.09
2023-01-19T23:49:05.917Z,100999.41
2023-01-19T23:51:33.044Z,100992.19
2023-01-19T23:54:00.428Z,101014.88
2023-01-19T23:56:32.846Z,101006.88
2023-01-19T23:59:07.736Z,101013.50
